Terminal Aerodrome Forecast
Issued by NWS Buffalo, NY

Home | Current Version | Previous Version | Text Only | Print | Product List | Glossary On
Versions: 1 2 3 4 5 6 7 8 9 10 11 12 13 14 15 16 17 18 19 20 21 22 23 24 25 26
000
FTUS41 KBUF 172320
TAFBUF
TAF
KBUF 172320Z 1800/1824 23015G25KT P6SM SCT250
     FM180300 22013KT P6SM SCT250
     FM180900 22009KT P6SM SCT250
     FM181500 23013G20KT P6SM SKC
     FM182200 21008KT P6SM SKC=

USA.gov is the U.S. government's official web portal to all federal, state and local government web resources and services.